sensor_id;sensor_type;location;lat;lon;timestamp;temperature;humidity
65038;DHT22;51605;47.040;15.294;2023-11-18T00:00:34;21.90;46.60
65038;DHT22;51605;47.040;15.294;2023-11-18T00:03:00;21.90;46.50
65038;DHT22;51605;47.040;15.294;2023-11-18T00:05:25;21.80;46.40
65038;DHT22;51605;47.040;15.294;2023-11-18T00:07:51;21.80;46.50
65038;DHT22;51605;47.040;15.294;2023-11-18T00:10:17;21.80;46.60
65038;DHT22;51605;47.040;15.294;2023-11-18T00:12:43;21.90;46.50
65038;DHT22;51605;47.040;15.294;2023-11-18T00:15:09;21.90;46.50
65038;DHT22;51605;47.040;15.294;2023-11-18T00:17:37;21.80;46.40
65038;DHT22;51605;47.040;15.294;2023-11-18T00:20:03;21.80;46.50
65038;DHT22;51605;47.040;15.294;2023-11-18T00:22:34;21.80;46.60
65038;DHT22;51605;47.040;15.294;2023-11-18T00:25:00;21.80;46.60
65038;DHT22;51605;47.040;15.294;2023-11-18T00:27:25;21.80;46.50
65038;DHT22;51605;47.040;15.294;2023-11-18T00:29:51;21.80;46.50
65038;DHT22;51605;47.040;15.294;2023-11-18T00:32:18;21.90;46.50
65038;DHT22;51605;47.040;15.294;2023-11-18T00:34:44;21.80;46.50
65038;DHT22;51605;47.040;15.294;2023-11-18T00:37:10;21.80;46.60
65038;DHT22;51605;47.040;15.294;2023-11-18T00:39:35;21.80;46.50
65038;DHT22;51605;47.040;15.294;2023-11-18T00:42:02;21.80;46.60
65038;DHT22;51605;47.040;15.294;2023-11-18T00:44:28;21.80;46.60
65038;DHT22;51605;47.040;15.294;2023-11-18T00:46:54;21.80;46.60
65038;DHT22;51605;47.040;15.294;2023-11-18T00:49:20;21.90;46.60
65038;DHT22;51605;47.040;15.294;2023-11-18T00:51:45;21.80;46.60
65038;DHT22;51605;47.040;15.294;2023-11-18T00:54:11;21.80;46.60
65038;DHT22;51605;47.040;15.294;2023-11-18T00:56:37;21.80;46.50
65038;DHT22;51605;47.040;15.294;2023-11-18T00:59:03;21.80;46.50
65038;DHT22;51605;47.040;15.294;2023-11-18T01:01:29;21.80;46.40
65038;DHT22;51605;47.040;15.294;2023-11-18T01:03:54;21.80;46.50
65038;DHT22;51605;47.040;15.294;2023-11-18T01:06:20;21.90;46.40
65038;DHT22;51605;47.040;15.294;2023-11-18T01:08:47;21.80;46.40
65038;DHT22;51605;47.040;15.294;2023-11-18T01:11:17;21.90;46.40
65038;DHT22;51605;47.040;15.294;2023-11-18T01:13:46;21.90;46.40
65038;DHT22;51605;47.040;15.294;2023-11-18T01:16:12;21.90;46.50
65038;DHT22;51605;47.040;15.294;2023-11-18T01:18:39;21.90;46.60
65038;DHT22;51605;47.040;15.294;2023-11-18T01:21:05;21.80;46.60
65038;DHT22;51605;47.040;15.294;2023-11-18T01:23:31;21.90;46.60
65038;DHT22;51605;47.040;15.294;2023-11-18T01:25:56;21.80;46.40
65038;DHT22;51605;47.040;15.294;2023-11-18T01:28:22;21.80;46.50
65038;DHT22;51605;47.040;15.294;2023-11-18T01:30:51;21.80;46.50
65038;DHT22;51605;47.040;15.294;2023-11-18T01:33:17;21.90;46.60
65038;DHT22;51605;47.040;15.294;2023-11-18T01:35:43;21.80;46.60
65038;DHT22;51605;47.040;15.294;2023-11-18T01:38:09;21.80;46.60
65038;DHT22;51605;47.040;15.294;2023-11-18T01:40:37;21.80;46.60
65038;DHT22;51605;47.040;15.294;2023-11-18T01:43:03;21.80;46.50
65038;DHT22;51605;47.040;15.294;2023-11-18T01:45:36;21.80;46.40
65038;DHT22;51605;47.040;15.294;2023-11-18T01:48:02;21.80;46.50
65038;DHT22;51605;47.040;15.294;2023-11-18T01:50:28;21.80;46.50
65038;DHT22;51605;47.040;15.294;2023-11-18T01:52:55;21.80;46.40
65038;DHT22;51605;47.040;15.294;2023-11-18T01:55:20;21.80;46.40
65038;DHT22;51605;47.040;15.294;2023-11-18T01:57:47;21.80;46.30
65038;DHT22;51605;47.040;15.294;2023-11-18T02:00:13;21.90;46.50
65038;DHT22;51605;47.040;15.294;2023-11-18T02:02:43;21.80;46.50
65038;DHT22;51605;47.040;15.294;2023-11-18T02:05:09;21.80;46.50
65038;DHT22;51605;47.040;15.294;2023-11-18T02:07:38;21.80;46.50
65038;DHT22;51605;47.040;15.294;2023-11-18T02:10:04;21.80;46.50
65038;DHT22;51605;47.040;15.294;2023-11-18T02:12:43;21.80;46.40
65038;DHT22;51605;47.040;15.294;2023-11-18T02:15:10;21.80;46.60
65038;DHT22;51605;47.040;15.294;2023-11-18T02:17:38;21.80;46.50
65038;DHT22;51605;47.040;15.294;2023-11-18T02:20:07;21.80;46.40
65038;DHT22;51605;47.040;15.294;2023-11-18T02:22:42;21.80;46.40
65038;DHT22;51605;47.040;15.294;2023-11-18T02:25:09;21.80;46.40
65038;DHT22;51605;47.040;15.294;2023-11-18T02:27:37;21.80;46.50
65038;DHT22;51605;47.040;15.294;2023-11-18T02:30:03;21.80;46.60
65038;DHT22;51605;47.040;15.294;2023-11-18T02:32:37;21.80;46.50
65038;DHT22;51605;47.040;15.294;2023-11-18T02:37:31;21.80;46.50
65038;DHT22;51605;47.040;15.294;2023-11-18T02:40:03;21.80;46.40
65038;DHT22;51605;47.040;15.294;2023-11-18T02:42:35;21.80;46.40
65038;DHT22;51605;47.040;15.294;2023-11-18T02:45:05;21.80;46.40
65038;DHT22;51605;47.040;15.294;2023-11-18T02:47:33;21.80;47.60
65038;DHT22;51605;47.040;15.294;2023-11-18T02:49:58;21.80;46.60
65038;DHT22;51605;47.040;15.294;2023-11-18T02:52:31;21.80;46.60
65038;DHT22;51605;47.040;15.294;2023-11-18T02:54:56;21.80;46.50
65038;DHT22;51605;47.040;15.294;2023-11-18T02:57:22;21.80;46.40
65038;DHT22;51605;47.040;15.294;2023-11-18T02:59:48;21.80;46.40
65038;DHT22;51605;47.040;15.294;2023-11-18T03:02:14;21.80;46.60
65038;DHT22;51605;47.040;15.294;2023-11-18T03:04:40;21.80;46.60
65038;DHT22;51605;47.040;15.294;2023-11-18T03:07:10;21.80;46.50
65038;DHT22;51605;47.040;15.294;2023-11-18T03:09:35;21.80;46.40
65038;DHT22;51605;47.040;15.294;2023-11-18T03:12:04;21.80;46.40
65038;DHT22;51605;47.040;15.294;2023-11-18T03:14:29;21.80;46.50
65038;DHT22;51605;47.040;15.294;2023-11-18T03:16:55;21.80;46.40
65038;DHT22;51605;47.040;15.294;2023-11-18T03:19:21;21.80;46.40
65038;DHT22;51605;47.040;15.294;2023-11-18T03:21:52;21.80;46.40
65038;DHT22;51605;47.040;15.294;2023-11-18T03:24:18;21.80;46.50
65038;DHT22;51605;47.040;15.294;2023-11-18T03:26:44;21.80;46.40
65038;DHT22;51605;47.040;15.294;2023-11-18T03:29:10;21.80;46.40
65038;DHT22;51605;47.040;15.294;2023-11-18T03:31:38;21.80;46.40
65038;DHT22;51605;47.040;15.294;2023-11-18T03:34:04;21.80;46.30
65038;DHT22;51605;47.040;15.294;2023-11-18T03:36:30;21.80;46.70
65038;DHT22;51605;47.040;15.294;2023-11-18T03:38:55;21.80;46.50
65038;DHT22;51605;47.040;15.294;2023-11-18T03:41:21;21.80;46.70
65038;DHT22;51605;47.040;15.294;2023-11-18T03:43:49;21.80;46.40
65038;DHT22;51605;47.040;15.294;2023-11-18T03:46:14;21.80;46.40
65038;DHT22;51605;47.040;15.294;2023-11-18T03:48:44;21.80;46.50
65038;DHT22;51605;47.040;15.294;2023-11-18T03:51:10;21.80;46.40
65038;DHT22;51605;47.040;15.294;2023-11-18T03:53:35;21.80;46.40
65038;DHT22;51605;47.040;15.294;2023-11-18T03:56:01;21.80;46.50
65038;DHT22;51605;47.040;15.294;2023-11-18T03:58:28;21.80;46.40
65038;DHT22;51605;47.040;15.294;2023-11-18T04:00:53;21.80;46.40
65038;DHT22;51605;47.040;15.294;2023-11-18T04:03:19;21.80;47.30
65038;DHT22;51605;47.040;15.294;2023-11-18T04:05:45;21.80;46.30
65038;DHT22;51605;47.040;15.294;2023-11-18T04:08:10;21.80;46.30
65038;DHT22;51605;47.040;15.294;2023-11-18T04:10:37;21.80;46.40
65038;DHT22;51605;47.040;15.294;2023-11-18T04:13:02;21.80;46.40
65038;DHT22;51605;47.040;15.294;2023-11-18T04:15:28;21.80;46.30
65038;DHT22;51605;47.040;15.294;2023-11-18T04:17:54;21.80;46.30
65038;DHT22;51605;47.040;15.294;2023-11-18T04:20:19;21.80;46.40
65038;DHT22;51605;47.040;15.294;2023-11-18T04:22:45;21.80;46.30
65038;DHT22;51605;47.040;15.294;2023-11-18T04:25:11;21.80;46.40
65038;DHT22;51605;47.040;15.294;2023-11-18T04:27:38;21.80;46.30
65038;DHT22;51605;47.040;15.294;2023-11-18T04:30:04;21.80;46.40
65038;DHT22;51605;47.040;15.294;2023-11-18T04:32:30;21.80;46.40
65038;DHT22;51605;47.040;15.294;2023-11-18T04:34:59;21.80;46.40
65038;DHT22;51605;47.040;15.294;2023-11-18T04:37:34;21.80;46.40
65038;DHT22;51605;47.040;15.294;2023-11-18T04:40:00;21.80;46.40
65038;DHT22;51605;47.040;15.294;2023-11-18T04:42:26;21.80;46.40
65038;DHT22;51605;47.040;15.294;2023-11-18T04:44:57;21.80;46.40
65038;DHT22;51605;47.040;15.294;2023-11-18T04:47:23;21.80;46.40
65038;DHT22;51605;47.040;15.294;2023-11-18T04:49:50;21.80;46.40
65038;DHT22;51605;47.040;15.294;2023-11-18T04:52:17;21.80;46.30
65038;DHT22;51605;47.040;15.294;2023-11-18T04:54:42;21.80;46.20
65038;DHT22;51605;47.040;15.294;2023-11-18T04:57:09;21.80;46.30
65038;DHT22;51605;47.040;15.294;2023-11-18T04:59:35;21.80;46.30
65038;DHT22;51605;47.040;15.294;2023-11-18T05:02:01;21.80;46.40
65038;DHT22;51605;47.040;15.294;2023-11-18T05:04:28;21.80;46.40
65038;DHT22;51605;47.040;15.294;2023-11-18T05:06:53;21.80;46.30
65038;DHT22;51605;47.040;15.294;2023-11-18T05:09:19;21.80;46.20
65038;DHT22;51605;47.040;15.294;2023-11-18T05:11:45;21.80;46.20
65038;DHT22;51605;47.040;15.294;2023-11-18T05:14:10;21.80;46.40
65038;DHT22;51605;47.040;15.294;2023-11-18T05:16:36;21.80;46.30
65038;DHT22;51605;47.040;15.294;2023-11-18T05:19:05;21.80;46.30
65038;DHT22;51605;47.040;15.294;2023-11-18T05:21:31;21.80;46.40
65038;DHT22;51605;47.040;15.294;2023-11-18T05:23:56;21.80;46.30
65038;DHT22;51605;47.040;15.294;2023-11-18T05:26:22;21.80;46.30
65038;DHT22;51605;47.040;15.294;2023-11-18T05:28:48;21.80;46.20
65038;DHT22;51605;47.040;15.294;2023-11-18T05:31:15;21.80;46.30
65038;DHT22;51605;47.040;15.294;2023-11-18T05:33:41;21.80;46.30
65038;DHT22;51605;47.040;15.294;2023-11-18T05:36:07;21.80;46.30
65038;DHT22;51605;47.040;15.294;2023-11-18T05:38:32;21.80;46.40
65038;DHT22;51605;47.040;15.294;2023-11-18T05:41:01;21.80;46.30
65038;DHT22;51605;47.040;15.294;2023-11-18T05:43:32;21.80;46.40
65038;DHT22;51605;47.040;15.294;2023-11-18T05:46:05;21.80;46.30
65038;DHT22;51605;47.040;15.294;2023-11-18T05:48:44;21.80;46.30
65038;DHT22;51605;47.040;15.294;2023-11-18T05:51:10;21.80;46.40
65038;DHT22;51605;47.040;15.294;2023-11-18T05:53:40;21.80;46.20
65038;DHT22;51605;47.040;15.294;2023-11-18T05:56:07;21.80;46.30
65038;DHT22;51605;47.040;15.294;2023-11-18T05:58:33;21.80;46.20
65038;DHT22;51605;47.040;15.294;2023-11-18T06:00:59;21.80;46.20
65038;DHT22;51605;47.040;15.294;2023-11-18T06:03:25;21.80;46.20
65038;DHT22;51605;47.040;15.294;2023-11-18T06:05:52;21.80;46.20
65038;DHT22;51605;47.040;15.294;2023-11-18T06:08:17;21.80;46.20
65038;DHT22;51605;47.040;15.294;2023-11-18T06:10:43;21.80;46.30
65038;DHT22;51605;47.040;15.294;2023-11-18T06:13:10;21.80;46.30
65038;DHT22;51605;47.040;15.294;2023-11-18T06:15:38;21.80;46.40
65038;DHT22;51605;47.040;15.294;2023-11-18T06:18:05;21.80;46.30
65038;DHT22;51605;47.040;15.294;2023-11-18T06:20:33;21.80;46.40
65038;DHT22;51605;47.040;15.294;2023-11-18T06:22:58;21.80;46.40
65038;DHT22;51605;47.040;15.294;2023-11-18T06:25:25;21.80;46.30
65038;DHT22;51605;47.040;15.294;2023-11-18T06:27:51;21.80;46.20
65038;DHT22;51605;47.040;15.294;2023-11-18T06:30:18;21.80;46.20
65038;DHT22;51605;47.040;15.294;2023-11-18T06:32:45;21.80;46.40
65038;DHT22;51605;47.040;15.294;2023-11-18T06:35:12;21.80;46.20
65038;DHT22;51605;47.040;15.294;2023-11-18T06:37:40;21.80;46.10
65038;DHT22;51605;47.040;15.294;2023-11-18T06:40:06;21.80;46.20
65038;DHT22;51605;47.040;15.294;2023-11-18T06:42:42;21.80;46.20
65038;DHT22;51605;47.040;15.294;2023-11-18T06:45:08;21.80;46.20
65038;DHT22;51605;47.040;15.294;2023-11-18T06:47:35;21.80;46.10
65038;DHT22;51605;47.040;15.294;2023-11-18T06:50:02;21.80;46.20
65038;DHT22;51605;47.040;15.294;2023-11-18T06:52:27;21.80;46.20
65038;DHT22;51605;47.040;15.294;2023-11-18T06:54:54;21.80;46.20
65038;DHT22;51605;47.040;15.294;2023-11-18T06:57:20;21.80;46.20
65038;DHT22;51605;47.040;15.294;2023-11-18T06:59:47;21.80;46.20
65038;DHT22;51605;47.040;15.294;2023-11-18T07:02:13;21.80;46.20
65038;DHT22;51605;47.040;15.294;2023-11-18T07:04:41;21.80;46.20
65038;DHT22;51605;47.040;15.294;2023-11-18T07:07:06;21.80;46.20
65038;DHT22;51605;47.040;15.294;2023-11-18T07:09:34;21.80;46.20
65038;DHT22;51605;47.040;15.294;2023-11-18T07:12:02;21.80;46.20
65038;DHT22;51605;47.040;15.294;2023-11-18T07:14:29;21.80;46.10
65038;DHT22;51605;47.040;15.294;2023-11-18T07:16:55;21.80;46.00
65038;DHT22;51605;47.040;15.294;2023-11-18T07:19:20;21.80;46.20
65038;DHT22;51605;47.040;15.294;2023-11-18T07:21:50;21.80;46.20
65038;DHT22;51605;47.040;15.294;2023-11-18T07:24:16;21.80;46.20
65038;DHT22;51605;47.040;15.294;2023-11-18T07:26:42;21.80;46.10
65038;DHT22;51605;47.040;15.294;2023-11-18T07:29:09;21.80;46.20
65038;DHT22;51605;47.040;15.294;2023-11-18T07:31:35;21.80;46.20
65038;DHT22;51605;47.040;15.294;2023-11-18T07:34:05;21.90;46.10
65038;DHT22;51605;47.040;15.294;2023-11-18T07:36:33;21.80;46.10
65038;DHT22;51605;47.040;15.294;2023-11-18T07:38:59;21.80;46.10
65038;DHT22;51605;47.040;15.294;2023-11-18T07:41:30;21.80;46.20
65038;DHT22;51605;47.040;15.294;2023-11-18T07:43:56;21.80;46.20
65038;DHT22;51605;47.040;15.294;2023-11-18T07:46:22;21.80;46.20
65038;DHT22;51605;47.040;15.294;2023-11-18T07:48:49;21.80;46.20
65038;DHT22;51605;47.040;15.294;2023-11-18T07:51:15;21.80;46.20
65038;DHT22;51605;47.040;15.294;2023-11-18T07:53:41;21.80;46.20
65038;DHT22;51605;47.040;15.294;2023-11-18T07:56:07;21.80;46.10
65038;DHT22;51605;47.040;15.294;2023-11-18T07:58:36;21.70;46.00
65038;DHT22;51605;47.040;15.294;2023-11-18T08:01:03;21.80;46.00
65038;DHT22;51605;47.040;15.294;2023-11-18T08:03:33;21.80;46.00
65038;DHT22;51605;47.040;15.294;2023-11-18T08:05:59;21.80;46.00
65038;DHT22;51605;47.040;15.294;2023-11-18T08:08:25;21.80;46.10
65038;DHT22;51605;47.040;15.294;2023-11-18T08:10:51;21.80;46.10
65038;DHT22;51605;47.040;15.294;2023-11-18T08:13:16;21.80;46.10
65038;DHT22;51605;47.040;15.294;2023-11-18T08:15:43;21.80;46.10
65038;DHT22;51605;47.040;15.294;2023-11-18T08:18:11;21.80;46.00
65038;DHT22;51605;47.040;15.294;2023-11-18T08:20:37;21.80;46.00
65038;DHT22;51605;47.040;15.294;2023-11-18T08:23:03;21.80;46.10
65038;DHT22;51605;47.040;15.294;2023-11-18T08:25:32;21.80;45.90
65038;DHT22;51605;47.040;15.294;2023-11-18T08:27:59;21.80;45.90
65038;DHT22;51605;47.040;15.294;2023-11-18T08:30:26;21.80;45.90
65038;DHT22;51605;47.040;15.294;2023-11-18T08:32:52;21.80;45.90
65038;DHT22;51605;47.040;15.294;2023-11-18T08:35:18;21.80;46.10
65038;DHT22;51605;47.040;15.294;2023-11-18T08:37:44;21.80;45.90
65038;DHT22;51605;47.040;15.294;2023-11-18T08:40:11;21.80;46.00
65038;DHT22;51605;47.040;15.294;2023-11-18T08:42:51;21.80;46.00
65038;DHT22;51605;47.040;15.294;2023-11-18T08:45:24;21.80;46.00
65038;DHT22;51605;47.040;15.294;2023-11-18T08:47:59;21.80;45.90
65038;DHT22;51605;47.040;15.294;2023-11-18T08:50:27;21.80;46.00
65038;DHT22;51605;47.040;15.294;2023-11-18T08:52:55;21.80;46.20
65038;DHT22;51605;47.040;15.294;2023-11-18T08:55:25;21.70;46.00
65038;DHT22;51605;47.040;15.294;2023-11-18T08:58:07;21.80;47.20
65038;DHT22;51605;47.040;15.294;2023-11-18T09:03:18;21.70;46.10
65038;DHT22;51605;47.040;15.294;2023-11-18T09:05:55;21.70;46.10
65038;DHT22;51605;47.040;15.294;2023-11-18T09:08:27;21.70;46.00
65038;DHT22;51605;47.040;15.294;2023-11-18T09:10:58;21.70;46.10
65038;DHT22;51605;47.040;15.294;2023-11-18T09:13:25;21.80;46.10
65038;DHT22;51605;47.040;15.294;2023-11-18T09:16:02;21.70;46.10
65038;DHT22;51605;47.040;15.294;2023-11-18T09:18:30;21.70;46.10
65038;DHT22;51605;47.040;15.294;2023-11-18T09:20:57;21.70;46.10
65038;DHT22;51605;47.040;15.294;2023-11-18T09:23:26;21.70;46.10
65038;DHT22;51605;47.040;15.294;2023-11-18T09:25:53;21.70;46.00
65038;DHT22;51605;47.040;15.294;2023-11-18T09:28:20;21.70;45.80
65038;DHT22;51605;47.040;15.294;2023-11-18T09:30:47;21.70;45.60
65038;DHT22;51605;47.040;15.294;2023-11-18T09:33:19;21.80;45.60
65038;DHT22;51605;47.040;15.294;2023-11-18T09:35:56;21.80;45.50
65038;DHT22;51605;47.040;15.294;2023-11-18T09:38:32;21.80;45.50
65038;DHT22;51605;47.040;15.294;2023-11-18T09:40:59;21.80;45.50
65038;DHT22;51605;47.040;15.294;2023-11-18T09:43:30;21.80;45.60
65038;DHT22;51605;47.040;15.294;2023-11-18T09:46:08;21.80;45.50
65038;DHT22;51605;47.040;15.294;2023-11-18T09:48:52;21.80;45.50
65038;DHT22;51605;47.040;15.294;2023-11-18T09:53:51;21.80;45.50
65038;DHT22;51605;47.040;15.294;2023-11-18T09:59:15;21.80;45.50
65038;DHT22;51605;47.040;15.294;2023-11-18T10:01:49;21.80;45.50
65038;DHT22;51605;47.040;15.294;2023-11-18T10:04:20;21.80;45.60
65038;DHT22;51605;47.040;15.294;2023-11-18T10:06:46;21.80;45.50
65038;DHT22;51605;47.040;15.294;2023-11-18T10:09:16;21.80;45.50
65038;DHT22;51605;47.040;15.294;2023-11-18T10:11:44;21.80;46.60
65038;DHT22;51605;47.040;15.294;2023-11-18T10:14:16;21.80;45.40
65038;DHT22;51605;47.040;15.294;2023-11-18T10:16:43;21.80;45.50
65038;DHT22;51605;47.040;15.294;2023-11-18T10:19:12;21.80;45.50
65038;DHT22;51605;47.040;15.294;2023-11-18T10:21:38;21.80;45.50
65038;DHT22;51605;47.040;15.294;2023-11-18T10:24:06;21.80;45.90
65038;DHT22;51605;47.040;15.294;2023-11-18T10:26:40;21.80;45.70
65038;DHT22;51605;47.040;15.294;2023-11-18T10:29:09;21.80;45.40
65038;DHT22;51605;47.040;15.294;2023-11-18T10:31:35;21.80;45.30
65038;DHT22;51605;47.040;15.294;2023-11-18T10:34:03;21.80;45.50
65038;DHT22;51605;47.040;15.294;2023-11-18T10:36:32;21.80;45.50
65038;DHT22;51605;47.040;15.294;2023-11-18T10:38:59;21.80;45.50
65038;DHT22;51605;47.040;15.294;2023-11-18T10:41:26;21.80;45.70
65038;DHT22;51605;47.040;15.294;2023-11-18T10:44:13;21.80;46.60
65038;DHT22;51605;47.040;15.294;2023-11-18T10:46:50;21.80;45.70
65038;DHT22;51605;47.040;15.294;2023-11-18T10:49:18;21.80;45.70
65038;DHT22;51605;47.040;15.294;2023-11-18T10:51:44;21.80;45.50
65038;DHT22;51605;47.040;15.294;2023-11-18T10:54:13;21.80;45.60
65038;DHT22;51605;47.040;15.294;2023-11-18T10:56:48;21.80;45.70
65038;DHT22;51605;47.040;15.294;2023-11-18T10:59:14;21.80;45.70
65038;DHT22;51605;47.040;15.294;2023-11-18T11:01:42;21.80;45.70
65038;DHT22;51605;47.040;15.294;2023-11-18T11:04:09;21.80;45.70
65038;DHT22;51605;47.040;15.294;2023-11-18T11:06:43;21.80;45.70
65038;DHT22;51605;47.040;15.294;2023-11-18T11:09:11;21.80;45.60
65038;DHT22;51605;47.040;15.294;2023-11-18T11:12:04;21.80;45.60
65038;DHT22;51605;47.040;15.294;2023-11-18T11:17:27;21.80;45.60
65038;DHT22;51605;47.040;15.294;2023-11-18T11:20:05;21.80;45.50
65038;DHT22;51605;47.040;15.294;2023-11-18T11:23:05;21.80;45.50
65038;DHT22;51605;47.040;15.294;2023-11-18T11:25:49;21.80;45.50
65038;DHT22;51605;47.040;15.294;2023-11-18T11:28:22;21.80;45.60
65038;DHT22;51605;47.040;15.294;2023-11-18T11:31:14;21.80;45.60
65038;DHT22;51605;47.040;15.294;2023-11-18T11:34:02;21.80;45.60
65038;DHT22;51605;47.040;15.294;2023-11-18T11:36:41;21.80;45.70
65038;DHT22;51605;47.040;15.294;2023-11-18T11:39:08;21.80;45.70
65038;DHT22;51605;47.040;15.294;2023-11-18T11:41:44;21.80;45.70
65038;DHT22;51605;47.040;15.294;2023-11-18T11:44:12;21.80;45.70
65038;DHT22;51605;47.040;15.294;2023-11-18T11:46:40;21.80;45.80
65038;DHT22;51605;47.040;15.294;2023-11-18T11:49:09;21.80;45.80
65038;DHT22;51605;47.040;15.294;2023-11-18T11:51:54;21.80;45.80
65038;DHT22;51605;47.040;15.294;2023-11-18T11:54:27;21.80;45.80
65038;DHT22;51605;47.040;15.294;2023-11-18T11:56:57;21.80;45.80
65038;DHT22;51605;47.040;15.294;2023-11-18T12:02:11;21.80;45.80
65038;DHT22;51605;47.040;15.294;2023-11-18T12:04:51;21.80;45.80
65038;DHT22;51605;47.040;15.294;2023-11-18T12:07:21;21.90;45.80
65038;DHT22;51605;47.040;15.294;2023-11-18T12:09:49;21.90;45.80
65038;DHT22;51605;47.040;15.294;2023-11-18T12:12:20;21.80;45.80
65038;DHT22;51605;47.040;15.294;2023-11-18T12:14:54;21.90;45.80
65038;DHT22;51605;47.040;15.294;2023-11-18T12:17:23;21.90;46.80
65038;DHT22;51605;47.040;15.294;2023-11-18T12:19:57;21.80;46.30
65038;DHT22;51605;47.040;15.294;2023-11-18T12:23:04;21.90;46.20
65038;DHT22;51605;47.040;15.294;2023-11-18T12:25:39;21.80;46.20
65038;DHT22;51605;47.040;15.294;2023-11-18T12:28:15;21.90;46.80
65038;DHT22;51605;47.040;15.294;2023-11-18T12:30:45;21.90;47.00
65038;DHT22;51605;47.040;15.294;2023-11-18T12:39:10;21.90;47.80
65038;DHT22;51605;47.040;15.294;2023-11-18T12:41:42;22.00;47.70
65038;DHT22;51605;47.040;15.294;2023-11-18T12:47:01;22.20;48.00
65038;DHT22;51605;47.040;15.294;2023-11-18T12:49:40;22.30;48.20
65038;DHT22;51605;47.040;15.294;2023-11-18T12:52:11;22.40;48.10
65038;DHT22;51605;47.040;15.294;2023-11-18T12:54:38;22.50;48.10
65038;DHT22;51605;47.040;15.294;2023-11-18T12:57:12;22.60;48.10
65038;DHT22;51605;47.040;15.294;2023-11-18T12:59:41;22.70;48.10
65038;DHT22;51605;47.040;15.294;2023-11-18T13:02:08;22.80;47.50
65038;DHT22;51605;47.040;15.294;2023-11-18T13:04:40;22.90;47.30
65038;DHT22;51605;47.040;15.294;2023-11-18T13:07:06;23.00;46.90
65038;DHT22;51605;47.040;15.294;2023-11-18T13:09:37;23.00;46.60
65038;DHT22;51605;47.040;15.294;2023-11-18T13:12:04;23.10;46.40
65038;DHT22;51605;47.040;15.294;2023-11-18T13:14:34;23.10;46.20
65038;DHT22;51605;47.040;15.294;2023-11-18T13:17:03;23.20;46.10
65038;DHT22;51605;47.040;15.294;2023-11-18T13:19:32;23.20;46.20
65038;DHT22;51605;47.040;15.294;2023-11-18T13:22:18;23.30;45.80
65038;DHT22;51605;47.040;15.294;2023-11-18T13:24:47;23.30;45.70
65038;DHT22;51605;47.040;15.294;2023-11-18T13:27:16;23.40;45.70
65038;DHT22;51605;47.040;15.294;2023-11-18T13:29:46;23.40;45.70
65038;DHT22;51605;47.040;15.294;2023-11-18T13:32:15;23.40;45.50
65038;DHT22;51605;47.040;15.294;2023-11-18T13:34:41;23.40;45.40
65038;DHT22;51605;47.040;15.294;2023-11-18T13:37:08;23.40;45.30
65038;DHT22;51605;47.040;15.294;2023-11-18T13:39:34;23.40;45.30
65038;DHT22;51605;47.040;15.294;2023-11-18T13:42:39;23.30;45.30
65038;DHT22;51605;47.040;15.294;2023-11-18T13:45:12;23.20;45.50
65038;DHT22;51605;47.040;15.294;2023-11-18T13:47:41;23.20;45.60
65038;DHT22;51605;47.040;15.294;2023-11-18T13:50:08;23.10;45.70
65038;DHT22;51605;47.040;15.294;2023-11-18T13:52:34;23.00;45.80
65038;DHT22;51605;47.040;15.294;2023-11-18T13:55:00;23.00;45.90
65038;DHT22;51605;47.040;15.294;2023-11-18T13:57:26;22.90;45.90
65038;DHT22;51605;47.040;15.294;2023-11-18T13:59:52;22.80;46.10
65038;DHT22;51605;47.040;15.294;2023-11-18T14:02:19;22.80;46.60
65038;DHT22;51605;47.040;15.294;2023-11-18T14:04:46;22.70;46.60
65038;DHT22;51605;47.040;15.294;2023-11-18T14:07:14;22.70;46.90
65038;DHT22;51605;47.040;15.294;2023-11-18T14:09:41;22.70;46.70
65038;DHT22;51605;47.040;15.294;2023-11-18T14:12:10;22.60;46.70
65038;DHT22;51605;47.040;15.294;2023-11-18T14:14:37;22.60;46.90
65038;DHT22;51605;47.040;15.294;2023-11-18T14:17:04;22.50;47.00
65038;DHT22;51605;47.040;15.294;2023-11-18T14:19:36;22.50;47.00
65038;DHT22;51605;47.040;15.294;2023-11-18T14:22:13;22.50;47.00
65038;DHT22;51605;47.040;15.294;2023-11-18T14:25:02;22.50;47.10
65038;DHT22;51605;47.040;15.294;2023-11-18T14:27:31;22.40;47.10
65038;DHT22;51605;47.040;15.294;2023-11-18T14:30:20;22.40;47.10
65038;DHT22;51605;47.040;15.294;2023-11-18T14:32:45;22.40;47.20
65038;DHT22;51605;47.040;15.294;2023-11-18T14:35:12;22.40;47.40
65038;DHT22;51605;47.040;15.294;2023-11-18T14:37:43;22.40;47.50
65038;DHT22;51605;47.040;15.294;2023-11-18T14:40:15;22.40;47.40
65038;DHT22;51605;47.040;15.294;2023-11-18T14:42:46;22.40;47.50
65038;DHT22;51605;47.040;15.294;2023-11-18T14:45:14;22.30;47.50
65038;DHT22;51605;47.040;15.294;2023-11-18T14:47:40;22.30;47.50
65038;DHT22;51605;47.040;15.294;2023-11-18T14:50:07;22.30;47.40
65038;DHT22;51605;47.040;15.294;2023-11-18T14:52:42;22.30;47.50
65038;DHT22;51605;47.040;15.294;2023-11-18T14:55:09;22.30;47.50
65038;DHT22;51605;47.040;15.294;2023-11-18T14:57:41;22.30;47.50
65038;DHT22;51605;47.040;15.294;2023-11-18T15:00:15;22.30;47.60
65038;DHT22;51605;47.040;15.294;2023-11-18T15:03:00;22.20;47.60
65038;DHT22;51605;47.040;15.294;2023-11-18T15:05:28;22.20;47.70
65038;DHT22;51605;47.040;15.294;2023-11-18T15:07:55;22.20;47.70
65038;DHT22;51605;47.040;15.294;2023-11-18T15:10:22;22.20;47.80
65038;DHT22;51605;47.040;15.294;2023-11-18T15:13:10;22.20;47.90
65038;DHT22;51605;47.040;15.294;2023-11-18T15:15:45;22.10;48.00
65038;DHT22;51605;47.040;15.294;2023-11-18T15:18:14;22.10;48.00
65038;DHT22;51605;47.040;15.294;2023-11-18T15:20:43;22.10;48.10
65038;DHT22;51605;47.040;15.294;2023-11-18T15:23:09;22.10;48.20
65038;DHT22;51605;47.040;15.294;2023-11-18T15:25:35;22.10;48.20
65038;DHT22;51605;47.040;15.294;2023-11-18T15:28:01;22.10;48.20
65038;DHT22;51605;47.040;15.294;2023-11-18T15:30:27;22.00;48.10
65038;DHT22;51605;47.040;15.294;2023-11-18T15:32:53;22.00;47.90
65038;DHT22;51605;47.040;15.294;2023-11-18T15:35:19;22.10;48.00
65038;DHT22;51605;47.040;15.294;2023-11-18T15:37:47;22.00;47.90
65038;DHT22;51605;47.040;15.294;2023-11-18T15:40:16;22.00;47.80
65038;DHT22;51605;47.040;15.294;2023-11-18T15:42:48;22.10;47.80
65038;DHT22;51605;47.040;15.294;2023-11-18T15:45:18;22.00;48.30
65038;DHT22;51605;47.040;15.294;2023-11-18T15:47:45;22.00;48.60
65038;DHT22;51605;47.040;15.294;2023-11-18T15:50:14;22.00;48.60